Terminal Aerodrome Forecast
Issued by NWS

Home | Current Version | Previous Version | Text Only | Print | Product List | Glossary On
Versions: 1 2 3 4 5 6 7 8 9 10 11 12 13 14 15
000
FTUS44 KTSA 272300
TAFMLC
TAF
KMLC 272328Z 2800/2824 05007KT P6SM VCSH OVC050
      TEMPO 2800/2804 5SM -TSRA BKN035CB
     FM280400 04008KT 6SM -SHRA BR OVC025
     FM280800 04008KT 5SM -SHRA BR OVC015
     FM281200 04010KT 6SM -SHRA OVC025
     FM281900 01012G18KT P6SM OVC050=

USA.gov is the U.S. government's official web portal to all federal, state and local government web resources and services.